Time;durP1;ratioP1;P1;durP2;ratioP2;P2;SDS_P1;SDS_P2;PMS_P1;PMS_P2;Temp;Humidity;BMP_temperature;BMP_pressure;BME280_temperature;BME280_humidity;BME280_pressure;Samples;Min_cycle;Max_cycle;Signal;HPM_P1;HPM_P2
2022/12/11 00:00:51;;;;;;;20.33;10.83;;;;;1.30;100589.00;;;;9773328;30;20210;-75
2022/12/11 00:05:53;;;;;;;21.37;10.67;;;;;1.30;100591.00;;;;9769940;30;20314;-75
2022/12/11 00:10:55;;;;;;;24.77;9.47;;;;;1.30;100601.00;;;;9779617;30;20248;-75
2022/12/11 00:15:58;;;;;;;23.67;10.07;;;;;1.30;100592.00;;;;9780268;30;20245;-75
2022/12/11 00:21:06;;;;;;;23.63;10.30;;;;;1.30;100589.00;;;;9761016;30;21159;-75
2022/12/11 00:26:11;;;;;;;24.23;10.17;;;;;1.30;100580.00;;;;9765906;30;20202;-75
2022/12/11 00:31:15;;;;;;;23.83;9.80;;;;;1.30;100580.00;;;;9765322;30;20329;-75
2022/12/11 00:36:21;;;;;;;20.77;9.63;;;;;1.30;100576.00;;;;9779004;30;20221;-75
2022/12/11 00:41:23;;;;;;;20.33;9.10;;;;;1.30;100580.00;;;;9764397;30;20198;-75
2022/12/11 00:46:25;;;;;;;22.50;10.67;;;;;1.30;100577.00;;;;9751283;30;20220;-75
2022/12/11 00:51:27;;;;;;;28.53;11.10;;;;;1.20;100574.00;;;;9749095;30;20762;-75
2022/12/11 00:56:29;;;;;;;22.43;10.23;;;;;1.20;100575.00;;;;9764139;30;20218;-75
2022/12/11 01:01:31;;;;;;;26.43;11.53;;;;;1.20;100565.00;;;;9775901;30;20666;-75
2022/12/11 01:06:33;;;;;;;24.87;10.87;;;;;1.20;100563.00;;;;9739327;30;20206;-75
2022/12/11 01:11:35;;;;;;;28.23;11.27;;;;;1.20;100560.00;;;;9735544;30;20209;-75
2022/12/11 01:16:37;;;;;;;25.47;11.20;;;;;1.20;100565.00;;;;9744597;30;20295;-75
2022/12/11 01:21:39;;;;;;;22.60;10.57;;;;;1.20;100563.00;;;;9749116;30;20208;-75
2022/12/11 01:26:41;;;;;;;22.53;10.53;;;;;1.30;100569.00;;;;9761690;30;20680;-75
2022/12/11 01:31:43;;;;;;;22.10;10.07;;;;;1.30;100566.00;;;;9776771;30;20241;-75
2022/12/11 01:36:45;;;;;;;22.87;10.43;;;;;1.30;100559.00;;;;9714387;30;20230;-75
2022/12/11 01:41:47;;;;;;;24.07;10.90;;;;;1.30;100576.00;;;;9760955;30;20261;-75
2022/12/11 01:46:50;;;;;;;21.00;9.43;;;;;1.40;100581.00;;;;9763438;30;20209;-75
2022/12/11 01:51:57;;;;;;;22.60;9.97;;;;;1.40;100578.00;;;;9745369;30;20209;-75
2022/12/11 01:57:04;;;;;;;19.60;9.70;;;;;1.40;100577.00;;;;9776198;30;20284;-75
2022/12/11 02:02:14;;;;;;;21.53;10.47;;;;;1.40;100578.00;;;;9725612;30;20195;-75
2022/12/11 02:07:16;;;;;;;20.53;9.47;;;;;1.40;100571.00;;;;9738569;30;20260;-75
2022/12/11 02:12:21;;;;;;;20.40;9.83;;;;;1.40;100563.00;;;;9775359;30;20210;-75
2022/12/11 02:17:59;;;;;;;22.90;10.57;;;;;1.40;100557.00;;;;9742335;30;20703;-75
2022/12/11 02:23:38;;;;;;;24.77;10.60;;;;;1.40;100562.00;;;;9747924;30;20237;-75
2022/12/11 02:28:50;;;;;;;19.73;9.77;;;;;1.40;100558.00;;;;9746897;30;20249;-75
2022/12/11 02:34:14;;;;;;;26.10;11.07;;;;;1.40;100556.00;;;;9774557;30;20582;-75
2022/12/11 02:39:17;;;;;;;24.53;11.20;;;;;1.40;100549.00;;;;9742382;30;20218;-75
2022/12/11 02:44:24;;;;;;;25.70;11.50;;;;;1.40;100540.00;;;;9724630;30;20202;-75
2022/12/11 02:49:27;;;;;;;24.07;11.50;;;;;1.40;100549.00;;;;9755172;30;20182;-75
2022/12/11 02:54:33;;;;;;;24.13;11.57;;;;;1.40;100549.00;;;;9746403;30;20210;-75
2022/12/11 02:59:42;;;;;;;27.27;11.20;;;;;1.40;100547.00;;;;9773955;30;20296;-75
2022/12/11 03:04:45;;;;;;;23.30;10.20;;;;;1.40;100537.00;;;;9774030;30;20233;-75
2022/12/11 03:09:48;;;;;;;20.37;9.60;;;;;1.40;100530.00;;;;9774263;30;20229;-75
2022/12/11 03:14:50;;;;;;;25.17;11.00;;;;;1.40;100529.00;;;;9774467;30;20241;-75
2022/12/11 03:20:16;;;;;;;25.27;11.03;;;;;1.40;100515.00;;;;9759888;30;20198;-75
2022/12/11 03:25:26;;;;;;;26.13;12.07;;;;;1.40;100513.00;;;;9736532;30;20217;-75
2022/12/11 03:30:31;;;;;;;27.43;12.53;;;;;1.40;100509.00;;;;9771869;30;20409;-75
2022/12/11 03:35:37;;;;;;;24.20;11.80;;;;;1.40;100512.00;;;;9760138;30;20571;-75
2022/12/11 03:40:43;;;;;;;29.23;12.13;;;;;1.40;100502.00;;;;9759016;30;20206;-75
2022/12/11 03:45:48;;;;;;;28.83;13.07;;;;;1.40;100512.00;;;;9764078;30;20217;-75
2022/12/11 03:50:51;;;;;;;28.13;13.13;;;;;1.40;100502.00;;;;9751451;30;20206;-75
2022/12/11 03:55:57;;;;;;;28.77;13.30;;;;;1.40;100492.00;;;;9708315;30;20226;-75
2022/12/11 04:00:59;;;;;;;22.53;10.23;;;;;1.40;100490.00;;;;9778742;30;20233;-75
2022/12/11 04:06:00;;;;;;;27.00;12.97;;;;;1.30;100479.00;;;;9765917;30;20316;-75
2022/12/11 04:16:24;;;;;;;29.00;12.10;;;;;1.30;100475.00;;;;9717742;30;20226;-75
2022/12/11 04:26:46;;;;;;;32.00;13.17;;;;;1.30;100470.00;;;;9780153;30;20256;-75
2022/12/11 04:31:49;;;;;;;33.67;13.03;;;;;1.30;100467.00;;;;9756090;30;20229;-75
2022/12/11 04:36:51;;;;;;;32.17;12.63;;;;;1.30;100469.00;;;;9741548;30;20214;-75
2022/12/11 04:41:53;;;;;;;36.73;13.23;;;;;1.20;100466.00;;;;9760144;30;20209;-75
2022/12/11 04:46:55;;;;;;;32.67;12.43;;;;;1.30;100466.00;;;;9749560;30;20229;-75
2022/12/11 04:51:57;;;;;;;37.30;14.03;;;;;1.30;100475.00;;;;9744139;30;20239;-75
2022/12/11 04:56:58;;;;;;;33.53;12.83;;;;;1.30;100470.00;;;;9735905;30;20721;-75
2022/12/11 05:02:00;;;;;;;35.63;13.03;;;;;1.30;100475.00;;;;9762499;30;20209;-75
2022/12/11 05:07:02;;;;;;;32.27;12.87;;;;;1.30;100461.00;;;;9748579;30;20205;-75
2022/12/11 05:12:04;;;;;;;30.07;11.63;;;;;1.30;100470.00;;;;9762194;30;20205;-75
2022/12/11 05:17:06;;;;;;;24.90;12.17;;;;;1.30;100466.00;;;;9775081;30;20221;-75
2022/12/11 05:22:08;;;;;;;33.80;11.93;;;;;1.30;100461.00;;;;9761804;30;20197;-75
2022/12/11 05:27:10;;;;;;;36.87;13.30;;;;;1.30;100462.00;;;;9763037;30;20202;-75
2022/12/11 05:32:12;;;;;;;32.63;13.83;;;;;1.30;100454.00;;;;9747579;30;20205;-75
2022/12/11 05:37:14;;;;;;;30.00;13.10;;;;;1.30;100445.00;;;;9759561;30;20682;-75
2022/12/11 05:42:16;;;;;;;29.97;11.73;;;;;1.30;100445.00;;;;9763781;30;20198;-75
2022/12/11 05:47:19;;;;;;;30.57;12.07;;;;;1.20;100436.00;;;;9762555;30;20202;-75
2022/12/11 05:52:21;;;;;;;30.53;11.93;;;;;1.20;100437.00;;;;9760956;30;20233;-75
2022/12/11 05:57:22;;;;;;;30.67;13.37;;;;;1.20;100433.00;;;;9726251;30;20226;-75
2022/12/11 06:02:24;;;;;;;30.23;12.33;;;;;1.30;100427.00;;;;9727301;30;20209;-75
2022/12/11 06:07:26;;;;;;;35.97;13.27;;;;;1.30;100447.00;;;;9755708;30;20326;-75
2022/12/11 06:12:29;;;;;;;34.07;14.27;;;;;1.30;100438.00;;;;9726623;30;20202;-75
2022/12/11 06:17:33;;;;;;;34.40;13.97;;;;;1.30;100442.00;;;;9757107;30;20583;-75
2022/12/11 06:22:35;;;;;;;35.30;13.47;;;;;1.30;100449.00;;;;9769195;30;20599;-75
2022/12/11 06:27:37;;;;;;;30.37;12.83;;;;;1.30;100450.00;;;;9755446;30;20241;-75
2022/12/11 06:32:39;;;;;;;25.80;12.00;;;;;1.30;100449.00;;;;9739498;30;20208;-75
2022/12/11 06:37:41;;;;;;;33.30;13.80;;;;;1.30;100428.00;;;;9754160;30;20268;-75
2022/12/11 06:42:42;;;;;;;27.70;12.40;;;;;1.20;100424.00;;;;9775078;30;20209;-75
2022/12/11 06:47:44;;;;;;;31.90;13.67;;;;;1.20;100427.00;;;;9730750;30;20201;-75
2022/12/11 06:52:46;;;;;;;26.80;12.10;;;;;1.10;100436.00;;;;9773946;30;20222;-75
2022/12/11 06:57:48;;;;;;;30.37;13.40;;;;;1.10;100437.00;;;;9732355;30;20264;-75
2022/12/11 07:02:50;;;;;;;31.30;14.13;;;;;1.10;100454.00;;;;9775392;30;20256;-75
2022/12/11 07:07:53;;;;;;;36.07;13.60;;;;;1.10;100451.00;;;;9723752;30;20197;-75
2022/12/11 07:12:55;;;;;;;29.30;12.80;;;;;1.10;100448.00;;;;9759663;30;20293;-75
2022/12/11 07:17:57;;;;;;;27.40;11.93;;;;;1.00;100460.00;;;;9725824;30;20285;-75
2022/12/11 07:22:59;;;;;;;28.13;11.10;;;;;1.00;100455.00;;;;9728402;30;20202;-75
2022/12/11 07:28:01;;;;;;;33.80;13.50;;;;;1.00;100473.00;;;;9792010;30;20236;-75
2022/12/11 07:33:03;;;;;;;31.20;12.33;;;;;1.00;100474.00;;;;9766938;30;20214;-75
2022/12/11 07:38:05;;;;;;;28.33;14.23;;;;;1.00;100471.00;;;;9766392;30;20237;-75
2022/12/11 07:43:07;;;;;;;29.67;13.33;;;;;1.00;100475.00;;;;9780022;30;20216;-75
2022/12/11 07:48:08;;;;;;;26.57;11.77;;;;;1.00;100475.00;;;;9765355;30;20221;-75
2022/12/11 07:53:10;;;;;;;31.40;13.27;;;;;1.00;100478.00;;;;9766296;30;20198;-75
2022/12/11 07:58:12;;;;;;;33.90;13.93;;;;;1.00;100480.00;;;;9748892;30;20214;-75
2022/12/11 08:03:14;;;;;;;39.57;13.97;;;;;1.00;100483.00;;;;9781382;30;20202;-75
2022/12/11 08:08:16;;;;;;;30.77;13.63;;;;;1.10;100481.00;;;;9751854;30;20208;-74
2022/12/11 08:13:18;;;;;;;30.97;13.30;;;;;1.10;100475.00;;;;9769553;30;20231;-75
2022/12/11 08:18:20;;;;;;;27.93;12.10;;;;;1.10;100478.00;;;;9743177;30;20682;-75
2022/12/11 08:23:21;;;;;;;29.70;12.23;;;;;1.20;100474.00;;;;9765172;30;20205;-75
2022/12/11 08:28:23;;;;;;;25.87;12.60;;;;;1.20;100472.00;;;;9762981;30;20221;-75
2022/12/11 08:33:27;;;;;;;28.73;12.07;;;;;1.20;100470.00;;;;9777897;30;20202;-75
2022/12/11 08:38:30;;;;;;;29.20;11.07;;;;;1.30;100478.00;;;;9778395;30;20208;-75
2022/12/11 08:43:32;;;;;;;26.53;12.57;;;;;1.20;100473.00;;;;9764988;30;20205;-75
2022/12/11 08:48:36;;;;;;;28.63;12.73;;;;;1.20;100466.00;;;;9764267;30;20229;-75
2022/12/11 08:53:39;;;;;;;29.77;12.20;;;;;1.20;100467.00;;;;9763466;30;20678;-75
2022/12/11 08:58:42;;;;;;;30.77;12.17;;;;;1.20;100466.00;;;;9763668;30;20214;-75
2022/12/11 09:03:44;;;;;;;30.07;12.13;;;;;1.30;100466.00;;;;9737198;30;20206;-75
2022/12/11 09:08:48;;;;;;;33.10;13.20;;;;;1.30;100478.00;;;;9729366;30;20210;-75
2022/12/11 09:13:54;;;;;;;32.83;13.70;;;;;1.40;100467.00;;;;9751683;30;20217;-75
2022/12/11 09:18:58;;;;;;;27.17;11.70;;;;;1.50;100462.00;;;;9736294;30;20288;-74
2022/12/11 09:24:00;;;;;;;26.43;11.37;;;;;1.50;100453.00;;;;9761630;30;20205;-75
2022/12/11 09:29:04;;;;;;;24.83;12.20;;;;;1.50;100459.00;;;;9747807;30;20322;-75
2022/12/11 09:34:10;;;;;;;29.03;12.20;;;;;1.50;100456.00;;;;9751205;30;20198;-75
2022/12/11 09:39:15;;;;;;;25.83;11.37;;;;;1.60;100456.00;;;;9735108;30;20305;-75
2022/12/11 09:44:38;;;;;;;27.17;12.37;;;;;1.70;100455.00;;;;9761775;30;20213;-75
2022/12/11 09:49:43;;;;;;;26.00;12.57;;;;;1.80;100449.00;;;;9740910;30;20213;-75
2022/12/11 09:54:54;;;;;;;28.17;12.63;;;;;1.70;100450.00;;;;9748049;30;20265;-75
2022/12/11 10:00:13;;;;;;;25.07;11.87;;;;;1.70;100453.00;;;;9775967;30;20280;-75
2022/12/11 10:05:40;;;;;;;24.33;10.77;;;;;1.60;100449.00;;;;9775877;30;20201;-75
2022/12/11 10:10:47;;;;;;;25.80;11.57;;;;;1.70;100443.00;;;;9771094;30;20280;-75
2022/12/11 10:16:08;;;;;;;24.90;11.47;;;;;2.00;100430.00;;;;9772428;30;20208;-75
2022/12/11 10:21:11;;;;;;;24.53;11.90;;;;;2.00;100433.00;;;;9766999;30;20204;-76
2022/12/11 10:26:20;;;;;;;21.57;11.77;;;;;2.10;100424.00;;;;9758245;30;20528;-76
2022/12/11 10:31:27;;;;;;;26.53;12.50;;;;;2.10;100424.00;;;;9755154;30;20244;-75
2022/12/11 10:36:38;;;;;;;26.47;11.37;;;;;2.10;100417.00;;;;9747417;30;20338;-76
2022/12/11 10:41:46;;;;;;;24.10;11.07;;;;;2.10;100417.00;;;;9748042;30;20213;-76
2022/12/11 10:47:19;;;;;;;22.53;10.87;;;;;2.10;100419.00;;;;9728718;30;20237;-76
2022/12/11 10:52:23;;;;;;;23.27;10.87;;;;;2.20;100415.00;;;;9748342;30;20238;-76
2022/12/11 10:57:30;;;;;;;28.57;12.43;;;;;2.30;100420.00;;;;9743713;30;20683;-76
2022/12/11 11:02:44;;;;;;;25.00;11.23;;;;;2.30;100405.00;;;;9736305;30;20201;-76
2022/12/11 11:07:46;;;;;;;27.50;11.63;;;;;2.40;100390.00;;;;9751887;30;20206;-76
2022/12/11 11:12:49;;;;;;;27.23;11.40;;;;;2.50;100392.00;;;;9737402;30;20205;-76
2022/12/11 11:17:53;;;;;;;25.70;11.27;;;;;2.60;100387.00;;;;9743738;30;20618;-76
2022/12/11 11:23:00;;;;;;;27.83;12.77;;;;;3.00;100381.00;;;;9722266;30;20264;-76
2022/12/11 11:28:08;;;;;;;26.00;11.97;;;;;3.90;100376.00;;;;9752928;30;20226;-78
2022/12/11 11:33:17;;;;;;;30.50;12.43;;;;;4.20;100378.00;;;;9762292;30;20209;-79
2022/12/11 11:38:40;;;;;;;25.70;12.57;;;;;4.50;100383.00;;;;9736221;30;20218;-79
2022/12/11 11:43:46;;;;;;;26.30;11.63;;;;;4.40;100379.00;;;;9740796;30;20631;-79
2022/12/11 11:48:51;;;;;;;26.23;11.60;;;;;4.30;100383.00;;;;9764056;30;20301;-79
2022/12/11 11:53:58;;;;;;;28.23;12.53;;;;;4.30;100379.00;;;;9768534;30;20235;-79
2022/12/11 11:59:25;;;;;;;25.77;11.33;;;;;4.50;100370.00;;;;9778896;30;20316;-79
2022/12/11 12:04:32;;;;;;;23.10;11.27;;;;;4.40;100366.00;;;;9765405;30;20253;-78
2022/12/11 12:10:09;;;;;;;24.43;10.37;;;;;3.90;100345.00;;;;9747181;30;20208;-79
2022/12/11 12:15:30;;;;;;;25.57;11.67;;;;;3.40;100348.00;;;;9768857;30;20317;-78
2022/12/11 12:21:37;;;;;;;24.00;10.60;;;;;3.20;100342.00;;;;9774811;30;20280;-79
2022/12/11 12:26:48;;;;;;;19.17;9.63;;;;;3.40;100342.00;;;;9684793;30;20225;-79
2022/12/11 12:32:03;;;;;;;24.13;11.23;;;;;3.50;100347.00;;;;9762137;30;20272;-79
2022/12/11 12:37:24;;;;;;;20.57;9.67;;;;;3.60;100340.00;;;;9771832;30;20799;-79
2022/12/11 12:42:39;;;;;;;19.13;9.47;;;;;3.40;100335.00;;;;9731134;30;20230;-78
2022/12/11 12:47:46;;;;;;;21.07;9.60;;;;;3.40;100333.00;;;;9770080;30;20268;-78
2022/12/11 12:52:55;;;;;;;27.33;10.50;;;;;3.30;100349.00;;;;9766632;30;20210;-79
2022/12/11 12:58:04;;;;;;;20.30;8.67;;;;;3.10;100352.00;;;;9744519;30;20272;-78
2022/12/11 13:03:16;;;;;;;22.93;9.77;;;;;2.80;100357.00;;;;9747555;30;20213;-79
2022/12/11 13:08:24;;;;;;;21.40;8.93;;;;;2.60;100351.00;;;;9749244;30;20194;-78
2022/12/11 13:14:00;;;;;;;24.23;9.50;;;;;2.40;100352.00;;;;9777940;30;20209;-78
2022/12/11 13:19:03;;;;;;;22.20;9.57;;;;;2.40;100364.00;;;;9759269;30;20210;-78
2022/12/11 13:24:20;;;;;;;22.60;9.20;;;;;2.30;100366.00;;;;9774096;30;20217;-78
2022/12/11 13:29:29;;;;;;;22.13;9.33;;;;;2.40;100359.00;;;;9756681;30;20240;-79
2022/12/11 13:34:33;;;;;;;22.97;9.87;;;;;2.20;100363.00;;;;9746179;30;20222;-79
2022/12/11 13:39:38;;;;;;;23.50;9.87;;;;;2.20;100366.00;;;;9764399;30;20230;-78
2022/12/11 13:44:41;;;;;;;20.63;9.77;;;;;2.20;100363.00;;;;9735006;30;20268;-78
2022/12/11 13:49:47;;;;;;;26.97;10.43;;;;;2.20;100370.00;;;;9738142;30;20206;-78
2022/12/11 13:54:52;;;;;;;21.07;9.97;;;;;2.20;100369.00;;;;9754355;30;20705;-78
2022/12/11 13:59:56;;;;;;;22.03;9.67;;;;;2.10;100373.00;;;;9775449;30;20694;-78
2022/12/11 14:05:02;;;;;;;23.63;10.33;;;;;2.10;100376.00;;;;9754172;30;20291;-78
2022/12/11 14:10:13;;;;;;;22.57;10.30;;;;;2.10;100378.00;;;;9769876;30;20268;-78
2022/12/11 14:15:15;;;;;;;23.47;10.20;;;;;2.00;100372.00;;;;9746180;30;20206;-78
2022/12/11 14:20:29;;;;;;;22.53;9.80;;;;;1.80;100373.00;;;;9758192;30;20328;-78
2022/12/11 14:25:30;;;;;;;23.20;10.87;;;;;1.70;100372.00;;;;9737451;30;20202;-77
2022/12/11 14:30:35;;;;;;;26.27;11.03;;;;;1.60;100376.00;;;;9729834;30;20253;-77
2022/12/11 14:35:41;;;;;;;25.23;10.23;;;;;1.50;100376.00;;;;9764087;30;20205;-77
2022/12/11 14:40:47;;;;;;;28.13;12.17;;;;;1.50;100387.00;;;;9765882;30;20314;-77
2022/12/11 14:45:56;;;;;;;26.13;9.90;;;;;1.40;100374.00;;;;9764653;30;20220;-77
2022/12/11 14:51:02;;;;;;;29.13;11.53;;;;;1.50;100377.00;;;;9772949;30;20210;-77
2022/12/11 14:56:06;;;;;;;25.70;11.50;;;;;1.50;100381.00;;;;9728818;30;20210;-77
2022/12/11 15:01:29;;;;;;;27.60;11.70;;;;;1.50;100380.00;;;;9754723;30;20214;-77
2022/12/11 15:06:43;;;;;;;29.33;11.90;;;;;1.50;100384.00;;;;9757042;30;20221;-77
2022/12/11 15:11:45;;;;;;;26.77;11.37;;;;;1.50;100389.00;;;;9738009;30;20210;-77
2022/12/11 15:16:49;;;;;;;26.77;12.67;;;;;1.50;100392.00;;;;9763575;30;20765;-77
2022/12/11 15:21:52;;;;;;;33.27;14.23;;;;;1.40;100392.00;;;;9742732;30;20677;-77
2022/12/11 15:26:57;;;;;;;36.23;12.40;;;;;1.40;100388.00;;;;9705338;30;20209;-77
2022/12/11 15:32:17;;;;;;;32.47;13.93;;;;;1.40;100383.00;;;;9766350;30;20238;-77
2022/12/11 15:37:25;;;;;;;31.37;12.63;;;;;1.40;100395.00;;;;9775215;30;20276;-77
2022/12/11 15:42:34;;;;;;;27.77;11.83;;;;;1.40;100389.00;;;;9768908;30;20190;-77
2022/12/11 15:47:36;;;;;;;30.60;12.63;;;;;1.30;100386.00;;;;9768228;30;20201;-77
2022/12/11 15:52:38;;;;;;;35.50;13.53;;;;;1.30;100394.00;;;;9791837;30;20202;-77
2022/12/11 15:57:52;;;;;;;38.53;16.53;;;;;1.30;100403.00;;;;9732749;30;20215;-77
2022/12/11 16:02:55;;;;;;;38.10;14.47;;;;;1.30;100407.00;;;;9749954;30;20552;-77
2022/12/11 16:07:58;;;;;;;30.80;14.43;;;;;1.30;100404.00;;;;9768983;30;20202;-77
2022/12/11 16:13:01;;;;;;;32.67;14.10;;;;;1.30;100401.00;;;;9783026;30;20204;-77
2022/12/11 16:18:09;;;;;;;37.30;14.20;;;;;1.20;100395.00;;;;9754659;30;20218;-77
2022/12/11 16:23:13;;;;;;;27.60;12.30;;;;;1.10;100397.00;;;;9767701;30;20197;-77
2022/12/11 16:28:19;;;;;;;32.97;12.53;;;;;1.00;100400.00;;;;9769154;30;20227;-77
2022/12/11 16:33:21;;;;;;;31.00;13.90;;;;;1.00;100401.00;;;;9783043;30;20205;-77
2022/12/11 16:38:23;;;;;;;28.70;12.97;;;;;0.90;100393.00;;;;9742901;30;20687;-77
2022/12/11 16:43:25;;;;;;;24.43;11.47;;;;;0.90;100389.00;;;;9751718;30;20206;-77
2022/12/11 16:48:27;;;;;;;25.80;11.77;;;;;1.00;100384.00;;;;9760117;30;20198;-77
2022/12/11 16:53:29;;;;;;;26.33;12.73;;;;;0.90;100384.00;;;;9767202;30;20204;-78
2022/12/11 16:58:31;;;;;;;26.73;12.17;;;;;0.90;100391.00;;;;9761042;30;20214;-77
2022/12/11 17:03:33;;;;;;;35.30;17.90;;;;;0.90;100390.00;;;;9743811;30;20571;-77
2022/12/11 17:08:36;;;;;;;39.77;18.00;;;;;0.90;100387.00;;;;9734937;30;20607;-77
2022/12/11 17:13:38;;;;;;;34.77;17.03;;;;;0.90;100376.00;;;;9747336;30;20194;-77
2022/12/11 17:18:40;;;;;;;34.60;14.70;;;;;0.80;100378.00;;;;9747126;30;20225;-77
2022/12/11 17:23:43;;;;;;;26.10;12.67;;;;;0.80;100374.00;;;;9768998;30;20217;-77
2022/12/11 17:28:45;;;;;;;35.37;14.07;;;;;0.70;100375.00;;;;9752367;30;20283;-77
2022/12/11 17:33:48;;;;;;;36.27;16.13;;;;;0.70;100374.00;;;;9750723;30;20237;-78
2022/12/11 17:38:50;;;;;;;35.47;15.20;;;;;0.70;100366.00;;;;9768189;30;20590;-78
2022/12/11 17:43:54;;;;;;;35.73;17.00;;;;;0.60;100373.00;;;;9745038;30;20241;-78
2022/12/11 17:48:58;;;;;;;28.83;14.40;;;;;0.50;100371.00;;;;9781860;30;20254;-78
2022/12/11 17:54:00;;;;;;;30.40;14.07;;;;;0.40;100365.00;;;;9767952;30;20202;-78
2022/12/11 17:59:03;;;;;;;34.17;14.23;;;;;0.30;100364.00;;;;9773938;30;20300;-78
2022/12/11 18:04:05;;;;;;;32.27;11.53;;;;;0.20;100356.00;;;;9739200;30;20783;-78
2022/12/11 18:09:08;;;;;;;23.93;11.73;;;;;0.00;100363.00;;;;9769021;30;20202;-78
2022/12/11 18:14:10;;;;;;;21.43;10.77;;;;;-0.10;100365.00;;;;9767736;30;20206;-78
2022/12/11 18:19:18;;;;;;;24.30;10.83;;;;;-0.10;100356.00;;;;9768635;30;20229;-78
2022/12/11 18:24:21;;;;;;;25.53;11.30;;;;;-0.20;100369.00;;;;9771234;30;20209;-78
2022/12/11 18:29:24;;;;;;;19.10;9.67;;;;;-0.20;100373.00;;;;9744385;30;20237;-78
2022/12/11 18:34:26;;;;;;;22.03;10.77;;;;;-0.20;100376.00;;;;9766781;30;20201;-78
2022/12/11 18:39:27;;;;;;;22.03;9.93;;;;;-0.20;100383.00;;;;9766229;30;20239;-77
2022/12/11 18:44:29;;;;;;;21.70;11.67;;;;;-0.20;100385.00;;;;9751144;30;20219;-78
2022/12/11 18:49:31;;;;;;;23.87;11.50;;;;;-0.20;100387.00;;;;9780930;30;20201;-78
2022/12/11 18:54:34;;;;;;;23.90;10.27;;;;;-0.40;100382.00;;;;9737463;30;20750;-78
2022/12/11 18:59:36;;;;;;;22.43;11.23;;;;;-0.50;100376.00;;;;9750354;30;20566;-78
2022/12/11 19:04:38;;;;;;;21.83;10.70;;;;;-0.50;100383.00;;;;9769970;30;20772;-78
2022/12/11 19:09:40;;;;;;;25.80;12.00;;;;;-0.50;100377.00;;;;9748258;30;20206;-77
2022/12/11 19:14:48;;;;;;;23.53;11.20;;;;;-0.50;100388.00;;;;9753428;30;20206;-78
2022/12/11 19:19:50;;;;;;;29.47;11.27;;;;;-0.40;100391.00;;;;9747349;30;20252;-78
2022/12/11 19:24:52;;;;;;;26.00;11.40;;;;;-0.40;100380.00;;;;9722354;30;20194;-78
2022/12/11 19:29:54;;;;;;;31.70;12.00;;;;;-0.50;100383.00;;;;9766880;30;20245;-77
2022/12/11 19:34:56;;;;;;;29.80;12.90;;;;;-0.60;100384.00;;;;9752135;30;20206;-77
2022/12/11 19:39:58;;;;;;;30.57;12.17;;;;;-0.70;100377.00;;;;9771413;30;20595;-77
2022/12/11 19:45:01;;;;;;;25.73;11.27;;;;;-0.80;100376.00;;;;9770881;30;20212;-77
2022/12/11 19:50:04;;;;;;;26.10;10.87;;;;;-0.70;100385.00;;;;9785543;30;20193;-77
2022/12/11 19:55:06;;;;;;;26.63;12.13;;;;;-0.70;100387.00;;;;9741967;30;20212;-78
2022/12/11 20:00:09;;;;;;;23.60;10.97;;;;;-0.70;100393.00;;;;9784479;30;20686;-77
2022/12/11 20:05:12;;;;;;;25.53;10.80;;;;;-0.70;100384.00;;;;9770360;30;20213;-78
2022/12/11 20:10:15;;;;;;;25.10;11.53;;;;;-0.60;100398.00;;;;9771294;30;20281;-78
2022/12/11 20:15:19;;;;;;;21.17;11.13;;;;;-0.60;100396.00;;;;9751346;30;20198;-78
2022/12/11 20:20:22;;;;;;;28.77;11.80;;;;;-0.50;100400.00;;;;9757890;30;20283;-78
2022/12/11 20:25:25;;;;;;;29.60;11.13;;;;;-0.50;100406.00;;;;9750133;30;20198;-78
2022/12/11 20:30:27;;;;;;;26.80;13.40;;;;;-0.50;100393.00;;;;9757181;30;20220;-78
2022/12/11 20:35:30;;;;;;;25.83;12.47;;;;;-0.50;100403.00;;;;9766088;30;20202;-78
2022/12/11 20:40:34;;;;;;;26.93;11.97;;;;;-0.50;100394.00;;;;9736312;30;20245;-77
2022/12/11 20:45:36;;;;;;;28.60;11.87;;;;;-0.50;100397.00;;;;9765966;30;20248;-77
2022/12/11 20:50:38;;;;;;;26.07;10.50;;;;;-0.60;100387.00;;;;9752756;30;20215;-78
2022/12/11 20:55:41;;;;;;;25.57;10.57;;;;;-0.60;100395.00;;;;9759631;30;20257;-77
2022/12/11 21:00:43;;;;;;;30.37;13.63;;;;;-0.70;100401.00;;;;9736723;30;20215;-77
2022/12/11 21:05:45;;;;;;;20.30;8.90;;;;;-0.60;100401.00;;;;9765597;30;20230;-77
2022/12/11 21:10:47;;;;;;;23.57;10.23;;;;;-0.60;100414.00;;;;9749098;30;20211;-77
2022/12/11 21:15:51;;;;;;;23.40;10.73;;;;;-0.60;100417.00;;;;9744075;30;20221;-77
2022/12/11 21:20:55;;;;;;;23.60;10.37;;;;;-0.60;100413.00;;;;9729738;30;20222;-77
2022/12/11 21:25:58;;;;;;;27.63;10.73;;;;;-0.60;100414.00;;;;9732431;30;20206;-77
2022/12/11 21:31:02;;;;;;;20.37;9.20;;;;;-0.60;100421.00;;;;9760033;30;20226;-77
2022/12/11 21:36:06;;;;;;;22.00;9.53;;;;;-0.60;100418.00;;;;9749144;30;20210;-77
2022/12/11 21:41:08;;;;;;;21.03;9.80;;;;;-0.60;100409.00;;;;9757850;30;20222;-77
2022/12/11 21:46:16;;;;;;;21.17;9.20;;;;;-0.60;100397.00;;;;9748072;30;20264;-77
2022/12/11 21:51:22;;;;;;;26.23;9.70;;;;;-0.60;100400.00;;;;9744978;30;20213;-77
2022/12/11 21:56:27;;;;;;;18.53;9.57;;;;;-0.60;100409.00;;;;9737530;30;20265;-77
2022/12/11 22:01:32;;;;;;;32.13;11.20;;;;;-0.70;100404.00;;;;9760949;30;20690;-77
2022/12/11 22:06:34;;;;;;;26.57;11.27;;;;;-0.70;100405.00;;;;9732438;30;20197;-77
2022/12/11 22:11:36;;;;;;;26.20;10.63;;;;;-0.70;100409.00;;;;9759520;30;20296;-77
2022/12/11 22:16:38;;;;;;;20.53;9.67;;;;;-0.70;100417.00;;;;9744096;30;20296;-77
2022/12/11 22:21:40;;;;;;;24.03;10.10;;;;;-0.70;100413.00;;;;9749837;30;20426;-77
2022/12/11 22:26:42;;;;;;;25.40;10.53;;;;;-0.70;100412.00;;;;9760842;30;20565;-77
2022/12/11 22:31:44;;;;;;;27.00;10.47;;;;;-0.80;100418.00;;;;9741925;30;20234;-77
2022/12/11 22:36:46;;;;;;;21.17;9.33;;;;;-0.80;100427.00;;;;9745067;30;20228;-77
2022/12/11 22:41:48;;;;;;;24.97;10.50;;;;;-0.80;100434.00;;;;9742983;30;20221;-77
2022/12/11 22:46:50;;;;;;;21.40;9.30;;;;;-0.70;100437.00;;;;9750990;30;20202;-77
2022/12/11 22:51:52;;;;;;;23.93;10.63;;;;;-0.70;100433.00;;;;9759756;30;20205;-77
2022/12/11 22:56:53;;;;;;;21.73;10.30;;;;;-0.70;100428.00;;;;9729566;30;20575;-77
2022/12/11 23:01:55;;;;;;;29.83;10.70;;;;;-0.70;100427.00;;;;9767866;30;20236;-78
2022/12/11 23:06:58;;;;;;;24.07;10.10;;;;;-0.80;100433.00;;;;9764041;30;20634;-78
2022/12/11 23:12:00;;;;;;;27.43;10.17;;;;;-0.80;100439.00;;;;9762036;30;20244;-77
2022/12/11 23:17:02;;;;;;;23.77;9.90;;;;;-0.80;100434.00;;;;9761223;30;20263;-78
2022/12/11 23:22:04;;;;;;;22.10;10.07;;;;;-0.80;100446.00;;;;9761983;30;20695;-77
2022/12/11 23:27:06;;;;;;;20.80;9.30;;;;;-0.80;100435.00;;;;9757346;30;20206;-77
2022/12/11 23:32:08;;;;;;;21.87;9.80;;;;;-0.90;100446.00;;;;9770617;30;20276;-77
2022/12/11 23:37:10;;;;;;;24.43;10.00;;;;;-0.90;100444.00;;;;9792106;30;20260;-77
2022/12/11 23:42:12;;;;;;;24.07;10.17;;;;;-1.00;100433.00;;;;9762214;30;20260;-77
2022/12/11 23:47:13;;;;;;;26.10;10.87;;;;;-1.10;100439.00;;;;9756312;30;20198;-77
2022/12/11 23:52:15;;;;;;;23.60;10.30;;;;;-1.20;100452.00;;;;9774803;30;20201;-77
2022/12/11 23:57:17;;;;;;;23.53;10.30;;;;;-1.20;100438.00;;;;9739117;30;20206;-77
